Time;durP1;ratioP1;P1;durP2;ratioP2;P2;SDS_P1;SDS_P2;PMS_P1;PMS_P2;Temp;Humidity;BMP_temperature;BMP_pressure;BME280_temperature;BME280_humidity;BME280_pressure;Samples;Min_cycle;Max_cycle;Signal;HPM_P1;HPM_P2
2022/02/13 00:08:00;;;;;;;3.80;1.60;;;2.90;99.90;;;;;;20701632;28;20677;-44
2022/02/13 00:18:03;;;;;;;8.90;2.25;;;2.70;99.90;;;;;;20684208;28;20115;-49
2022/02/13 00:28:08;;;;;;;6.93;2.17;;;2.60;99.90;;;;;;20686837;28;20026;-44
2022/02/13 00:38:09;;;;;;;4.75;2.00;;;2.60;99.90;;;;;;20689895;28;20506;-45
2022/02/13 00:48:11;;;;;;;6.22;2.17;;;2.50;99.90;;;;;;20723524;28;20040;-44
2022/02/13 00:58:12;;;;;;;7.00;1.67;;;2.40;99.90;;;;;;20727446;28;20052;-45
2022/02/13 01:08:13;;;;;;;4.25;1.27;;;2.50;99.90;;;;;;20704146;28;20057;-44
2022/02/13 01:18:15;;;;;;;7.30;1.70;;;2.50;99.90;;;;;;20712967;28;20042;-45
2022/02/13 01:28:16;;;;;;;4.40;1.38;;;2.60;99.90;;;;;;20687251;28;20052;-44
2022/02/13 01:38:18;;;;;;;3.03;1.17;;;2.70;99.90;;;;;;20700244;28;20041;-44
2022/02/13 01:48:19;;;;;;;5.80;2.92;;;2.70;99.90;;;;;;20697540;28;20038;-44
2022/02/13 01:58:20;;;;;;;5.22;1.38;;;2.60;99.90;;;;;;20651890;28;20050;-45
2022/02/13 02:08:22;;;;;;;4.75;1.92;;;2.70;99.90;;;;;;20647586;28;20037;-44
2022/02/13 02:18:23;;;;;;;4.88;1.25;;;2.60;99.90;;;;;;20714039;28;20050;-44
2022/02/13 02:28:24;;;;;;;3.70;1.95;;;2.60;99.90;;;;;;20703653;28;20815;-44
2022/02/13 02:38:25;;;;;;;4.20;1.80;;;2.50;99.90;;;;;;20696948;28;20313;-44
2022/02/13 02:48:26;;;;;;;5.15;1.50;;;2.40;99.90;;;;;;20689430;28;20045;-43
2022/02/13 02:58:27;;;;;;;4.07;1.50;;;2.30;99.90;;;;;;20700150;28;20042;-44
2022/02/13 03:08:28;;;;;;;6.05;1.70;;;2.20;99.90;;;;;;20694007;28;20522;-44
2022/02/13 03:18:30;;;;;;;6.97;1.50;;;2.10;99.90;;;;;;20685586;28;20467;-43
2022/02/13 03:28:31;;;;;;;5.15;1.42;;;2.10;99.90;;;;;;20684910;28;20038;-44
2022/02/13 03:38:32;;;;;;;2.63;1.60;;;2.10;99.90;;;;;;21184804;22;20045;-45
2022/02/13 03:48:33;;;;;;;9.23;2.00;;;2.10;99.90;;;;;;20730557;28;20049;-45
2022/02/13 03:58:34;;;;;;;8.30;1.85;;;2.10;99.90;;;;;;20731068;28;20052;-45
2022/02/13 04:08:35;;;;;;;4.82;1.52;;;2.20;99.90;;;;;;20751148;28;20045;-46
2022/02/13 04:18:36;;;;;;;5.35;1.73;;;2.20;99.90;;;;;;20826542;28;20045;-47
2022/02/13 04:28:37;;;;;;;4.90;1.75;;;2.20;99.90;;;;;;20784646;28;20075;-45
2022/02/13 04:38:40;;;;;;;3.17;1.48;;;2.10;99.90;;;;;;20679007;28;20061;-45
2022/02/13 04:48:41;;;;;;;3.47;1.25;;;2.10;99.90;;;;;;20671278;28;20039;-45
2022/02/13 04:58:42;;;;;;;4.68;1.45;;;2.10;99.90;;;;;;20689622;28;20418;-45
2022/02/13 05:08:44;;;;;;;3.00;1.50;;;2.00;99.90;;;;;;20731997;28;20570;-45
2022/02/13 05:18:45;;;;;;;3.80;1.05;;;2.00;99.90;;;;;;20732912;28;20054;-45
2022/02/13 05:28:46;;;;;;;8.90;1.40;;;1.90;99.90;;;;;;20727493;28;21063;-45
2022/02/13 05:38:47;;;;;;;5.88;1.65;;;1.90;99.90;;;;;;20719887;28;20041;-45
2022/02/13 05:48:48;;;;;;;3.35;1.45;;;1.90;99.90;;;;;;20746827;28;20046;-45
2022/02/13 05:58:51;;;;;;;3.13;1.35;;;2.00;99.90;;;;;;20749982;28;20050;-45
2022/02/13 06:08:52;;;;;;;3.72;1.58;;;2.00;99.90;;;;;;20751624;28;20046;-45
2022/02/13 06:18:54;;;;;;;2.53;1.20;;;2.10;99.90;;;;;;20739029;28;20038;-45
2022/02/13 06:28:55;;;;;;;3.45;1.63;;;2.10;99.90;;;;;;20735915;28;20037;-46
2022/02/13 06:38:56;;;;;;;2.78;1.08;;;2.20;99.90;;;;;;20736728;28;20079;-45
2022/02/13 06:48:57;;;;;;;7.15;1.80;;;2.30;99.90;;;;;;20744464;28;20041;-45
2022/02/13 06:58:58;;;;;;;4.00;1.52;;;2.30;99.90;;;;;;20758739;28;20524;-45
2022/02/13 07:09:00;;;;;;;8.60;2.15;;;2.30;99.90;;;;;;20737668;28;20054;-45
2022/02/13 07:19:02;;;;;;;5.22;1.45;;;2.40;99.90;;;;;;20730007;28;20115;-45
2022/02/13 07:29:05;;;;;;;3.50;1.13;;;2.40;99.90;;;;;;20743623;28;20040;-46
2022/02/13 07:39:06;;;;;;;5.30;1.45;;;2.50;99.90;;;;;;20743122;28;20248;-45
2022/02/13 07:49:07;;;;;;;5.18;1.48;;;2.60;99.90;;;;;;20732532;28;20052;-45
2022/02/13 07:59:08;;;;;;;4.75;1.33;;;2.70;99.90;;;;;;20693171;28;20426;-46
2022/02/13 08:09:09;;;;;;;1.92;0.88;;;2.80;99.90;;;;;;20676081;28;20479;-45
2022/02/13 08:19:10;;;;;;;5.78;1.77;;;2.90;99.90;;;;;;20708056;28;20044;-45
2022/02/13 08:29:11;;;;;;;3.55;1.23;;;3.00;99.90;;;;;;20734808;28;20049;-45
2022/02/13 08:39:12;;;;;;;4.60;1.73;;;3.10;99.90;;;;;;20696529;28;20042;-43
2022/02/13 08:49:14;;;;;;;6.05;1.55;;;3.20;99.90;;;;;;20628998;28;20203;-42
2022/02/13 08:59:15;;;;;;;3.60;1.48;;;3.40;99.90;;;;;;20668686;28;20038;-42
2022/02/13 09:09:16;;;;;;;5.53;1.67;;;3.50;99.90;;;;;;20678388;28;20045;-43
2022/02/13 09:19:19;;;;;;;5.65;1.50;;;3.60;99.90;;;;;;20657668;28;20042;-43
2022/02/13 09:29:20;;;;;;;5.45;2.03;;;3.70;99.90;;;;;;20585422;28;20510;-43
2022/02/13 09:39:25;;;;;;;4.50;1.20;;;3.90;99.90;;;;;;20552861;28;20434;-43
2022/02/13 09:49:26;;;;;;;4.30;1.27;;;4.10;99.90;;;;;;20568314;28;20038;-43
2022/02/13 09:59:29;;;;;;;4.55;1.63;;;4.40;99.90;;;;;;20534033;28;20046;-43
2022/02/13 10:09:39;;;;;;;6.72;1.80;;;4.70;99.90;;;;;;20567457;28;20053;-43
2022/02/13 10:20:01;;;;;;;5.53;2.30;;;5.00;99.90;;;;;;20586181;28;20039;-43
2022/02/13 10:30:06;;;;;;;6.20;1.98;;;5.50;99.90;;;;;;20603130;28;20042;-43
2022/02/13 10:40:16;;;;;;;3.47;1.40;;;6.00;99.90;;;;;;20561118;28;20308;-43
2022/02/13 10:50:19;;;;;;;8.65;2.45;;;6.20;99.90;;;;;;20598001;28;20050;-44
2022/02/13 11:00:20;;;;;;;7.38;2.67;;;6.30;99.90;;;;;;20595454;28;20042;-43
2022/02/13 11:10:29;;;;;;;4.43;1.83;;;6.40;99.90;;;;;;20597842;28;20042;-43
2022/02/13 11:20:31;;;;;;;5.57;1.95;;;6.80;99.90;;;;;;20586759;28;20038;-43
2022/02/13 11:30:45;;;;;;;4.00;1.63;;;7.30;99.90;;;;;;20599461;28;20034;-43
2022/02/13 11:40:46;;;;;;;2.97;1.45;;;7.80;99.90;;;;;;20601884;28;20061;-44
2022/02/13 11:50:47;;;;;;;4.65;2.10;;;8.10;99.90;;;;;;20627265;28;20049;-44
2022/02/13 12:00:51;;;;;;;4.03;1.88;;;8.10;99.90;;;;;;20622145;28;20541;-45
2022/02/13 12:11:05;;;;;;;7.28;1.52;;;8.20;99.90;;;;;;20569701;28;20389;-44
2022/02/13 12:21:08;;;;;;;4.65;1.65;;;8.10;99.90;;;;;;20695865;28;20045;-44
2022/02/13 12:31:09;;;;;;;6.05;1.98;;;8.60;99.90;;;;;;20729542;28;20030;-44
2022/02/13 12:41:10;;;;;;;6.25;1.80;;;8.90;99.90;;;;;;20728444;28;20046;-46
2022/02/13 12:51:11;;;;;;;6.40;2.75;;;8.80;99.90;;;;;;20730823;28;20045;-43
2022/02/13 13:01:14;;;;;;;6.57;2.00;;;8.90;99.90;;;;;;20743366;28;20038;-44
2022/02/13 13:11:32;;;;;;;3.55;1.58;;;8.80;99.90;;;;;;20721855;28;20037;-44
2022/02/13 13:21:38;;;;;;;5.72;1.80;;;8.60;99.90;;;;;;20709289;28;20053;-44
2022/02/13 13:31:53;;;;;;;5.25;1.60;;;8.70;99.90;;;;;;20709935;28;20947;-44
2022/02/13 13:41:54;;;;;;;3.65;1.48;;;8.70;99.90;;;;;;20714339;28;20052;-44
2022/02/13 13:51:55;;;;;;;4.00;1.67;;;8.80;99.90;;;;;;20728461;28;20053;-44
2022/02/13 14:01:57;;;;;;;4.00;1.50;;;8.90;99.90;;;;;;20746572;28;20042;-46
2022/02/13 14:11:58;;;;;;;4.13;1.88;;;9.10;99.90;;;;;;20740752;28;20048;-44
2022/02/13 14:22:00;;;;;;;3.88;1.33;;;9.30;99.90;;;;;;20718715;28;20054;-44
2022/02/13 14:32:07;;;;;;;4.43;1.35;;;9.40;99.90;;;;;;20726675;28;20548;-44
2022/02/13 14:42:08;;;;;;;6.13;1.60;;;9.50;99.90;;;;;;20705266;28;22223;-44
2022/02/13 14:52:10;;;;;;;3.42;1.55;;;9.40;99.90;;;;;;20715296;28;20045;-43
2022/02/13 15:02:11;;;;;;;3.80;1.48;;;9.40;99.90;;;;;;20687504;28;20481;-44
2022/02/13 15:12:13;;;;;;;2.83;1.25;;;9.50;99.90;;;;;;20690111;28;20041;-44
2022/02/13 15:22:16;;;;;;;4.82;2.13;;;9.40;99.90;;;;;;20735383;28;20051;-46
2022/02/13 15:32:19;;;;;;;5.15;1.80;;;9.40;99.90;;;;;;20705335;28;20508;-44
2022/02/13 15:42:20;;;;;;;8.00;2.33;;;9.40;99.90;;;;;;20727227;28;20232;-44
2022/02/13 15:52:24;;;;;;;4.20;1.98;;;9.40;99.90;;;;;;20724332;28;20049;-44
2022/02/13 16:02:25;;;;;;;5.80;1.92;;;9.50;99.90;;;;;;20740332;28;20060;-44
2022/02/13 16:12:26;;;;;;;3.45;1.73;;;9.50;99.90;;;;;;20737215;28;20056;-43
2022/02/13 16:22:27;;;;;;;9.15;2.13;;;9.60;99.90;;;;;;20742300;28;20731;-44
2022/02/13 16:32:28;;;;;;;3.03;1.52;;;9.60;99.90;;;;;;20692023;28;20085;-44
2022/02/13 16:42:30;;;;;;;4.22;2.03;;;9.60;99.90;;;;;;20751049;28;20237;-45
2022/02/13 16:52:31;;;;;;;9.60;1.92;;;9.60;99.90;;;;;;20658979;28;20049;-44
2022/02/13 17:02:32;;;;;;;3.40;1.20;;;9.60;99.90;;;;;;20628080;28;20040;-44
2022/02/13 17:12:33;;;;;;;3.53;1.50;;;9.60;99.90;;;;;;20637829;28;20042;-44
2022/02/13 17:22:34;;;;;;;3.17;1.00;;;9.60;99.90;;;;;;20707642;28;20038;-44
2022/02/13 17:32:35;;;;;;;5.20;1.30;;;9.50;99.90;;;;;;20727404;28;20610;-45
2022/02/13 17:42:39;;;;;;;3.35;1.60;;;9.50;99.90;;;;;;20642279;28;20344;-44
2022/02/13 17:52:41;;;;;;;4.95;1.52;;;9.50;99.90;;;;;;20645331;28;20041;-44
2022/02/13 18:02:42;;;;;;;6.25;1.58;;;9.50;99.90;;;;;;20651335;28;20350;-45
2022/02/13 18:12:43;;;;;;;6.70;1.42;;;9.40;99.90;;;;;;20647682;28;20050;-45
2022/02/13 18:22:45;;;;;;;3.17;1.45;;;9.40;99.90;;;;;;20639568;28;20049;-45
2022/02/13 18:32:46;;;;;;;4.72;1.92;;;9.40;99.90;;;;;;20650929;28;20072;-45
2022/02/13 18:42:48;;;;;;;2.85;1.30;;;9.50;99.90;;;;;;20655706;28;20061;-44
2022/02/13 18:52:49;;;;;;;5.90;2.35;;;9.60;99.90;;;;;;20641710;28;20041;-45
2022/02/13 19:02:51;;;;;;;4.55;1.17;;;9.60;99.90;;;;;;20637831;28;20058;-45
2022/02/13 19:12:58;;;;;;;4.45;1.60;;;9.80;99.90;;;;;;20641561;28;20050;-45
2022/02/13 19:23:01;;;;;;;3.50;1.33;;;9.90;99.90;;;;;;20689020;28;20037;-45
2022/02/13 19:33:02;;;;;;;4.78;1.30;;;10.00;99.90;;;;;;20675109;28;20414;-45
2022/02/13 19:43:04;;;;;;;3.45;1.50;;;10.00;99.90;;;;;;20697934;28;20045;-45
2022/02/13 19:53:06;;;;;;;4.05;1.67;;;10.10;99.90;;;;;;20718504;28;20073;-44
2022/02/13 20:03:09;;;;;;;5.82;1.60;;;10.10;99.90;;;;;;20701429;28;20444;-44
2022/02/13 20:13:10;;;;;;;4.93;1.60;;;10.20;99.90;;;;;;20698572;28;20588;-45
2022/02/13 20:23:11;;;;;;;4.47;2.10;;;10.10;99.90;;;;;;20683098;28;20533;-44
2022/02/13 20:33:13;;;;;;;4.25;2.22;;;10.20;99.90;;;;;;20658590;28;20116;-45
2022/02/13 20:43:15;;;;;;;4.43;1.58;;;10.30;99.90;;;;;;20682006;28;20050;-45
2022/02/13 20:53:16;;;;;;;6.40;1.70;;;10.30;99.90;;;;;;20683929;28;20250;-45
2022/02/13 21:03:17;;;;;;;5.90;2.22;;;10.30;99.90;;;;;;20700914;28;20046;-45
2022/02/13 21:13:21;;;;;;;3.72;1.27;;;10.30;99.90;;;;;;20698757;28;20037;-45
2022/02/13 21:23:22;;;;;;;5.43;1.25;;;10.30;99.90;;;;;;20683143;28;20255;-44
2022/02/13 21:33:23;;;;;;;13.07;2.72;;;10.30;99.90;;;;;;20694724;28;20057;-45
2022/02/13 21:43:24;;;;;;;3.72;1.70;;;10.30;99.90;;;;;;20699271;28;20495;-45
2022/02/13 21:53:25;;;;;;;2.80;1.38;;;10.20;99.90;;;;;;20694678;28;20050;-44
2022/02/13 22:03:27;;;;;;;5.82;1.92;;;10.30;99.90;;;;;;20690173;28;20437;-44
2022/02/13 22:13:28;;;;;;;5.38;1.67;;;10.30;99.90;;;;;;20692045;28;20056;-44
2022/02/13 22:23:31;;;;;;;4.75;2.17;;;10.40;99.90;;;;;;20679264;28;20500;-45
2022/02/13 22:33:32;;;;;;;3.00;1.23;;;10.40;99.90;;;;;;20661359;28;20478;-44
2022/02/13 22:43:33;;;;;;;3.90;1.33;;;10.40;99.90;;;;;;20659546;28;20579;-45
2022/02/13 22:53:35;;;;;;;4.10;1.50;;;10.40;99.90;;;;;;20648801;28;20039;-45
2022/02/13 23:03:37;;;;;;;2.95;1.48;;;10.40;99.90;;;;;;20671271;28;20042;-45
2022/02/13 23:13:38;;;;;;;4.10;1.30;;;10.40;99.90;;;;;;20667813;28;20057;-44
2022/02/13 23:23:39;;;;;;;7.57;1.75;;;10.50;99.90;;;;;;20675890;28;20069;-44
2022/02/13 23:33:40;;;;;;;6.43;1.67;;;10.50;99.90;;;;;;20687680;28;20068;-44
2022/02/13 23:43:42;;;;;;;3.13;0.95;;;10.50;99.90;;;;;;20684643;28;20515;-45
2022/02/13 23:53:48;;;;;;;4.67;1.47;;;10.40;99.90;;;;;;20672357;28;20357;-45
